sensor_id;sensor_type;location;lat;lon;timestamp;temperature;humidity
16879;DHT22;8556;52.218;9.884;2023-02-24T00:02:25;4.70;99.90
16879;DHT22;8556;52.218;9.884;2023-02-24T00:04:53;4.80;99.90
16879;DHT22;8556;52.218;9.884;2023-02-24T00:07:22;4.80;99.90
16879;DHT22;8556;52.218;9.884;2023-02-24T00:09:48;4.80;99.90
16879;DHT22;8556;52.218;9.884;2023-02-24T00:12:16;4.80;99.90
16879;DHT22;8556;52.218;9.884;2023-02-24T00:14:45;4.70;99.90
16879;DHT22;8556;52.218;9.884;2023-02-24T00:17:12;4.80;99.90
16879;DHT22;8556;52.218;9.884;2023-02-24T00:19:39;4.70;99.90
16879;DHT22;8556;52.218;9.884;2023-02-24T00:22:08;4.70;99.90
16879;DHT22;8556;52.218;9.884;2023-02-24T00:24:36;4.70;99.90
16879;DHT22;8556;52.218;9.884;2023-02-24T00:27:04;4.70;99.90
16879;DHT22;8556;52.218;9.884;2023-02-24T00:29:33;4.80;99.90
16879;DHT22;8556;52.218;9.884;2023-02-24T00:32:02;4.70;99.90
16879;DHT22;8556;52.218;9.884;2023-02-24T00:34:32;4.70;99.90
16879;DHT22;8556;52.218;9.884;2023-02-24T00:37:00;4.70;99.90
16879;DHT22;8556;52.218;9.884;2023-02-24T00:39:28;4.70;99.90
16879;DHT22;8556;52.218;9.884;2023-02-24T00:41:59;4.60;99.90
16879;DHT22;8556;52.218;9.884;2023-02-24T00:44:31;4.60;99.90
16879;DHT22;8556;52.218;9.884;2023-02-24T00:46:58;4.50;99.90
16879;DHT22;8556;52.218;9.884;2023-02-24T00:49:27;4.50;99.90
16879;DHT22;8556;52.218;9.884;2023-02-24T00:51:54;4.50;99.90
16879;DHT22;8556;52.218;9.884;2023-02-24T00:54:21;4.60;99.90
16879;DHT22;8556;52.218;9.884;2023-02-24T00:56:51;4.40;99.90
16879;DHT22;8556;52.218;9.884;2023-02-24T00:59:20;4.40;99.90
16879;DHT22;8556;52.218;9.884;2023-02-24T01:01:49;4.50;99.90
16879;DHT22;8556;52.218;9.884;2023-02-24T01:04:17;4.50;99.90
16879;DHT22;8556;52.218;9.884;2023-02-24T01:06:46;4.50;99.90
16879;DHT22;8556;52.218;9.884;2023-02-24T01:09:15;4.50;99.90
16879;DHT22;8556;52.218;9.884;2023-02-24T01:11:43;4.50;99.90
16879;DHT22;8556;52.218;9.884;2023-02-24T01:14:32;4.50;99.90
16879;DHT22;8556;52.218;9.884;2023-02-24T01:16:59;4.50;99.90
16879;DHT22;8556;52.218;9.884;2023-02-24T01:19:27;4.50;99.90
16879;DHT22;8556;52.218;9.884;2023-02-24T01:21:56;4.50;99.90
16879;DHT22;8556;52.218;9.884;2023-02-24T01:24:23;4.50;99.90
16879;DHT22;8556;52.218;9.884;2023-02-24T01:26:50;4.50;99.90
16879;DHT22;8556;52.218;9.884;2023-02-24T01:29:17;4.50;99.90
16879;DHT22;8556;52.218;9.884;2023-02-24T01:31:48;4.50;99.90
16879;DHT22;8556;52.218;9.884;2023-02-24T01:34:16;4.50;99.90
16879;DHT22;8556;52.218;9.884;2023-02-24T01:36:43;4.50;99.90
16879;DHT22;8556;52.218;9.884;2023-02-24T01:39:11;4.40;99.90
16879;DHT22;8556;52.218;9.884;2023-02-24T01:41:39;4.50;99.90
16879;DHT22;8556;52.218;9.884;2023-02-24T01:46:52;4.50;99.90
16879;DHT22;8556;52.218;9.884;2023-02-24T01:49:21;4.50;99.90
16879;DHT22;8556;52.218;9.884;2023-02-24T01:51:53;4.50;99.90
16879;DHT22;8556;52.218;9.884;2023-02-24T01:54:25;4.50;99.90
16879;DHT22;8556;52.218;9.884;2023-02-24T01:56:55;4.50;99.90
16879;DHT22;8556;52.218;9.884;2023-02-24T01:59:24;4.50;99.90
16879;DHT22;8556;52.218;9.884;2023-02-24T02:01:56;4.50;99.90
16879;DHT22;8556;52.218;9.884;2023-02-24T02:04:35;4.50;99.90
16879;DHT22;8556;52.218;9.884;2023-02-24T02:07:04;4.50;99.90
16879;DHT22;8556;52.218;9.884;2023-02-24T02:09:31;4.70;99.90
16879;DHT22;8556;52.218;9.884;2023-02-24T02:11:59;4.50;99.90
16879;DHT22;8556;52.218;9.884;2023-02-24T02:14:27;4.50;99.90
16879;DHT22;8556;52.218;9.884;2023-02-24T02:17:05;4.50;99.90
16879;DHT22;8556;52.218;9.884;2023-02-24T02:22:59;4.50;99.90
16879;DHT22;8556;52.218;9.884;2023-02-24T02:25:44;4.60;99.90
16879;DHT22;8556;52.218;9.884;2023-02-24T02:31:42;4.50;99.90
16879;DHT22;8556;52.218;9.884;2023-02-24T02:34:35;4.50;99.90
16879;DHT22;8556;52.218;9.884;2023-02-24T02:37:08;4.50;99.90
16879;DHT22;8556;52.218;9.884;2023-02-24T02:39:46;4.50;99.90
16879;DHT22;8556;52.218;9.884;2023-02-24T02:42:23;4.50;99.90
16879;DHT22;8556;52.218;9.884;2023-02-24T02:44:58;4.50;99.90
16879;DHT22;8556;52.218;9.884;2023-02-24T02:47:34;4.50;99.90
16879;DHT22;8556;52.218;9.884;2023-02-24T02:50:10;4.50;99.90
16879;DHT22;8556;52.218;9.884;2023-02-24T02:52:48;4.40;99.90
16879;DHT22;8556;52.218;9.884;2023-02-24T02:55:21;4.50;99.90
16879;DHT22;8556;52.218;9.884;2023-02-24T02:57:52;4.40;99.90
16879;DHT22;8556;52.218;9.884;2023-02-24T03:00:23;4.50;99.90
16879;DHT22;8556;52.218;9.884;2023-02-24T03:02:56;4.50;99.90
16879;DHT22;8556;52.218;9.884;2023-02-24T03:05:29;4.40;99.90
16879;DHT22;8556;52.218;9.884;2023-02-24T03:07:58;4.40;99.90
16879;DHT22;8556;52.218;9.884;2023-02-24T03:10:29;4.40;99.90
16879;DHT22;8556;52.218;9.884;2023-02-24T03:13:00;4.40;99.90
16879;DHT22;8556;52.218;9.884;2023-02-24T03:15:30;4.50;99.90
16879;DHT22;8556;52.218;9.884;2023-02-24T03:18:02;4.40;99.90
16879;DHT22;8556;52.218;9.884;2023-02-24T03:20:40;4.40;99.90
16879;DHT22;8556;52.218;9.884;2023-02-24T03:23:12;4.40;99.90
16879;DHT22;8556;52.218;9.884;2023-02-24T03:25:45;4.40;99.90
16879;DHT22;8556;52.218;9.884;2023-02-24T03:28:18;4.40;99.90
16879;DHT22;8556;52.218;9.884;2023-02-24T03:30:51;4.50;99.90
16879;DHT22;8556;52.218;9.884;2023-02-24T03:33:21;4.50;99.90
16879;DHT22;8556;52.218;9.884;2023-02-24T03:35:52;4.40;99.90
16879;DHT22;8556;52.218;9.884;2023-02-24T03:38:20;4.40;99.90
16879;DHT22;8556;52.218;9.884;2023-02-24T03:40:48;4.40;99.90
16879;DHT22;8556;52.218;9.884;2023-02-24T03:43:19;4.30;99.90
16879;DHT22;8556;52.218;9.884;2023-02-24T03:45:50;4.40;99.90
16879;DHT22;8556;52.218;9.884;2023-02-24T03:48:18;4.30;99.90
16879;DHT22;8556;52.218;9.884;2023-02-24T03:50:45;4.30;99.90
16879;DHT22;8556;52.218;9.884;2023-02-24T03:53:27;4.30;99.90
16879;DHT22;8556;52.218;9.884;2023-02-24T03:56:02;4.40;99.90
16879;DHT22;8556;52.218;9.884;2023-02-24T03:58:37;4.30;99.90
16879;DHT22;8556;52.218;9.884;2023-02-24T04:01:17;4.30;99.90
16879;DHT22;8556;52.218;9.884;2023-02-24T04:03:50;4.20;99.90
16879;DHT22;8556;52.218;9.884;2023-02-24T04:06:30;4.30;99.90
16879;DHT22;8556;52.218;9.884;2023-02-24T04:09:06;4.30;99.90
16879;DHT22;8556;52.218;9.884;2023-02-24T04:11:41;4.20;99.90
16879;DHT22;8556;52.218;9.884;2023-02-24T04:14:16;4.20;99.90
16879;DHT22;8556;52.218;9.884;2023-02-24T04:16:49;4.20;99.90
16879;DHT22;8556;52.218;9.884;2023-02-24T04:19:20;4.20;99.90
16879;DHT22;8556;52.218;9.884;2023-02-24T04:21:49;4.10;99.90
16879;DHT22;8556;52.218;9.884;2023-02-24T04:24:20;4.10;99.90
16879;DHT22;8556;52.218;9.884;2023-02-24T04:26:49;4.10;99.90
16879;DHT22;8556;52.218;9.884;2023-02-24T04:29:19;4.10;99.90
16879;DHT22;8556;52.218;9.884;2023-02-24T04:31:51;4.10;99.90
16879;DHT22;8556;52.218;9.884;2023-02-24T04:34:19;4.10;99.90
16879;DHT22;8556;52.218;9.884;2023-02-24T04:36:46;4.10;99.90
16879;DHT22;8556;52.218;9.884;2023-02-24T04:39:15;4.10;99.90
16879;DHT22;8556;52.218;9.884;2023-02-24T04:41:44;4.10;99.90
16879;DHT22;8556;52.218;9.884;2023-02-24T04:44:14;4.10;99.90
16879;DHT22;8556;52.218;9.884;2023-02-24T04:46:42;4.10;99.90
16879;DHT22;8556;52.218;9.884;2023-02-24T04:49:10;4.10;99.90
16879;DHT22;8556;52.218;9.884;2023-02-24T04:51:37;4.10;99.90
16879;DHT22;8556;52.218;9.884;2023-02-24T04:54:10;4.10;99.90
16879;DHT22;8556;52.218;9.884;2023-02-24T04:56:40;4.00;99.90
16879;DHT22;8556;52.218;9.884;2023-02-24T04:59:09;4.10;99.90
16879;DHT22;8556;52.218;9.884;2023-02-24T05:01:36;4.10;99.90
16879;DHT22;8556;52.218;9.884;2023-02-24T05:04:05;4.10;99.90
16879;DHT22;8556;52.218;9.884;2023-02-24T05:06:33;4.00;99.90
16879;DHT22;8556;52.218;9.884;2023-02-24T05:09:01;4.00;99.90
16879;DHT22;8556;52.218;9.884;2023-02-24T05:11:39;4.00;99.90
16879;DHT22;8556;52.218;9.884;2023-02-24T05:14:08;4.00;99.90
16879;DHT22;8556;52.218;9.884;2023-02-24T05:16:39;4.20;99.90
16879;DHT22;8556;52.218;9.884;2023-02-24T05:19:07;4.00;99.90
16879;DHT22;8556;52.218;9.884;2023-02-24T05:21:51;4.00;99.90
16879;DHT22;8556;52.218;9.884;2023-02-24T05:24:18;4.00;99.90
16879;DHT22;8556;52.218;9.884;2023-02-24T05:26:45;3.90;99.90
16879;DHT22;8556;52.218;9.884;2023-02-24T05:29:13;4.00;99.90
16879;DHT22;8556;52.218;9.884;2023-02-24T05:31:40;3.90;99.90
16879;DHT22;8556;52.218;9.884;2023-02-24T05:34:07;4.00;99.90
16879;DHT22;8556;52.218;9.884;2023-02-24T05:36:36;4.00;99.90
16879;DHT22;8556;52.218;9.884;2023-02-24T05:39:06;4.00;99.90
16879;DHT22;8556;52.218;9.884;2023-02-24T05:41:38;4.00;99.90
16879;DHT22;8556;52.218;9.884;2023-02-24T05:44:07;3.90;99.90
16879;DHT22;8556;52.218;9.884;2023-02-24T05:46:38;4.00;99.90
16879;DHT22;8556;52.218;9.884;2023-02-24T05:49:10;3.90;99.90
16879;DHT22;8556;52.218;9.884;2023-02-24T05:51:39;3.90;99.90
16879;DHT22;8556;52.218;9.884;2023-02-24T05:54:09;3.90;99.90
16879;DHT22;8556;52.218;9.884;2023-02-24T05:56:38;4.00;99.90
16879;DHT22;8556;52.218;9.884;2023-02-24T05:59:07;3.90;99.90
16879;DHT22;8556;52.218;9.884;2023-02-24T06:01:38;3.90;99.90
16879;DHT22;8556;52.218;9.884;2023-02-24T06:04:07;4.10;99.90
16879;DHT22;8556;52.218;9.884;2023-02-24T06:06:36;3.90;99.90
16879;DHT22;8556;52.218;9.884;2023-02-24T06:09:06;3.90;99.90
16879;DHT22;8556;52.218;9.884;2023-02-24T06:11:35;3.90;99.90
16879;DHT22;8556;52.218;9.884;2023-02-24T06:14:03;3.80;99.90
16879;DHT22;8556;52.218;9.884;2023-02-24T06:16:33;3.80;99.90
16879;DHT22;8556;52.218;9.884;2023-02-24T06:19:02;3.80;99.90
16879;DHT22;8556;52.218;9.884;2023-02-24T06:21:29;3.80;99.90
16879;DHT22;8556;52.218;9.884;2023-02-24T06:23:57;3.80;99.90
16879;DHT22;8556;52.218;9.884;2023-02-24T06:26:25;3.80;99.90
16879;DHT22;8556;52.218;9.884;2023-02-24T06:28:54;3.80;99.90
16879;DHT22;8556;52.218;9.884;2023-02-24T06:31:22;3.80;99.90
16879;DHT22;8556;52.218;9.884;2023-02-24T06:33:49;3.80;99.90
16879;DHT22;8556;52.218;9.884;2023-02-24T06:36:19;3.80;99.90
16879;DHT22;8556;52.218;9.884;2023-02-24T06:38:47;3.80;99.90
16879;DHT22;8556;52.218;9.884;2023-02-24T06:41:14;3.80;99.90
16879;DHT22;8556;52.218;9.884;2023-02-24T06:43:43;3.80;99.90
16879;DHT22;8556;52.218;9.884;2023-02-24T06:46:11;3.70;99.90
16879;DHT22;8556;52.218;9.884;2023-02-24T06:48:40;3.70;99.90
16879;DHT22;8556;52.218;9.884;2023-02-24T06:51:09;3.70;99.90
16879;DHT22;8556;52.218;9.884;2023-02-24T06:53:39;3.70;99.90
16879;DHT22;8556;52.218;9.884;2023-02-24T06:56:08;3.70;99.90
16879;DHT22;8556;52.218;9.884;2023-02-24T06:58:40;3.70;99.90
16879;DHT22;8556;52.218;9.884;2023-02-24T07:01:10;3.70;99.90
16879;DHT22;8556;52.218;9.884;2023-02-24T07:03:38;3.70;99.90
16879;DHT22;8556;52.218;9.884;2023-02-24T07:06:12;3.80;99.90
16879;DHT22;8556;52.218;9.884;2023-02-24T07:08:51;3.80;99.90
16879;DHT22;8556;52.218;9.884;2023-02-24T07:11:18;3.90;99.90
16879;DHT22;8556;52.218;9.884;2023-02-24T07:13:47;3.90;99.90
16879;DHT22;8556;52.218;9.884;2023-02-24T07:16:14;3.80;99.90
16879;DHT22;8556;52.218;9.884;2023-02-24T07:18:42;3.90;99.90
16879;DHT22;8556;52.218;9.884;2023-02-24T07:21:13;3.90;99.90
16879;DHT22;8556;52.218;9.884;2023-02-24T07:23:42;3.90;99.90
16879;DHT22;8556;52.218;9.884;2023-02-24T07:26:12;3.90;99.90
16879;DHT22;8556;52.218;9.884;2023-02-24T07:28:40;3.90;99.90
16879;DHT22;8556;52.218;9.884;2023-02-24T07:31:09;4.00;99.90
16879;DHT22;8556;52.218;9.884;2023-02-24T07:33:36;3.90;99.90
16879;DHT22;8556;52.218;9.884;2023-02-24T07:36:04;4.00;99.90
16879;DHT22;8556;52.218;9.884;2023-02-24T07:38:35;3.90;99.90
16879;DHT22;8556;52.218;9.884;2023-02-24T07:41:02;4.00;99.90
16879;DHT22;8556;52.218;9.884;2023-02-24T07:43:32;4.10;99.90
16879;DHT22;8556;52.218;9.884;2023-02-24T07:46:05;4.10;99.90
16879;DHT22;8556;52.218;9.884;2023-02-24T07:48:32;4.00;99.90
16879;DHT22;8556;52.218;9.884;2023-02-24T07:51:00;4.00;99.90
16879;DHT22;8556;52.218;9.884;2023-02-24T07:53:27;4.00;99.90
16879;DHT22;8556;52.218;9.884;2023-02-24T07:55:54;4.10;99.90
16879;DHT22;8556;52.218;9.884;2023-02-24T07:58:21;4.20;99.90
16879;DHT22;8556;52.218;9.884;2023-02-24T08:00:50;4.10;99.90
16879;DHT22;8556;52.218;9.884;2023-02-24T08:03:26;4.10;99.90
16879;DHT22;8556;52.218;9.884;2023-02-24T08:05:55;4.10;99.90
16879;DHT22;8556;52.218;9.884;2023-02-24T08:08:37;4.10;99.90
16879;DHT22;8556;52.218;9.884;2023-02-24T08:11:22;4.10;99.90
16879;DHT22;8556;52.218;9.884;2023-02-24T08:13:49;4.10;99.90
16879;DHT22;8556;52.218;9.884;2023-02-24T08:16:18;4.20;99.90
16879;DHT22;8556;52.218;9.884;2023-02-24T08:18:45;4.20;99.90
16879;DHT22;8556;52.218;9.884;2023-02-24T08:21:14;4.20;99.90
16879;DHT22;8556;52.218;9.884;2023-02-24T08:23:41;4.20;99.90
16879;DHT22;8556;52.218;9.884;2023-02-24T08:26:10;4.20;99.90
16879;DHT22;8556;52.218;9.884;2023-02-24T08:28:37;4.10;99.90
16879;DHT22;8556;52.218;9.884;2023-02-24T08:31:05;4.20;99.90
16879;DHT22;8556;52.218;9.884;2023-02-24T08:33:33;4.20;99.90
16879;DHT22;8556;52.218;9.884;2023-02-24T08:36:02;4.20;99.90
16879;DHT22;8556;52.218;9.884;2023-02-24T08:38:31;4.20;99.90
16879;DHT22;8556;52.218;9.884;2023-02-24T08:41:14;4.30;99.90
16879;DHT22;8556;52.218;9.884;2023-02-24T08:43:44;4.40;99.90
16879;DHT22;8556;52.218;9.884;2023-02-24T08:46:18;4.30;99.90
16879;DHT22;8556;52.218;9.884;2023-02-24T08:48:53;4.30;99.90
16879;DHT22;8556;52.218;9.884;2023-02-24T08:51:23;4.20;99.90
16879;DHT22;8556;52.218;9.884;2023-02-24T08:53:54;4.20;99.90
16879;DHT22;8556;52.218;9.884;2023-02-24T08:56:26;4.20;99.90
16879;DHT22;8556;52.218;9.884;2023-02-24T08:58:55;4.20;99.90
16879;DHT22;8556;52.218;9.884;2023-02-24T09:01:25;4.20;99.90
16879;DHT22;8556;52.218;9.884;2023-02-24T09:04:02;4.20;99.90
16879;DHT22;8556;52.218;9.884;2023-02-24T09:06:37;4.20;99.90
16879;DHT22;8556;52.218;9.884;2023-02-24T09:09:04;4.30;99.90
16879;DHT22;8556;52.218;9.884;2023-02-24T09:11:45;4.20;99.90
16879;DHT22;8556;52.218;9.884;2023-02-24T09:14:16;4.30;99.90
16879;DHT22;8556;52.218;9.884;2023-02-24T09:16:46;4.20;99.90
16879;DHT22;8556;52.218;9.884;2023-02-24T09:19:35;4.20;99.90
16879;DHT22;8556;52.218;9.884;2023-02-24T09:22:28;4.20;99.90
16879;DHT22;8556;52.218;9.884;2023-02-24T09:24:58;4.20;99.90
16879;DHT22;8556;52.218;9.884;2023-02-24T09:27:39;4.10;99.90
16879;DHT22;8556;52.218;9.884;2023-02-24T09:30:08;4.10;99.90
16879;DHT22;8556;52.218;9.884;2023-02-24T09:32:55;4.00;99.90
16879;DHT22;8556;52.218;9.884;2023-02-24T09:35:27;3.90;99.90
16879;DHT22;8556;52.218;9.884;2023-02-24T09:38:01;3.90;99.90
16879;DHT22;8556;52.218;9.884;2023-02-24T09:40:31;3.90;99.90
16879;DHT22;8556;52.218;9.884;2023-02-24T09:43:07;3.90;99.90
16879;DHT22;8556;52.218;9.884;2023-02-24T09:48:44;3.90;99.90
16879;DHT22;8556;52.218;9.884;2023-02-24T09:51:15;3.90;99.90
16879;DHT22;8556;52.218;9.884;2023-02-24T09:53:49;3.80;99.90
16879;DHT22;8556;52.218;9.884;2023-02-24T09:56:26;3.80;99.90
16879;DHT22;8556;52.218;9.884;2023-02-24T09:58:59;3.80;99.90
16879;DHT22;8556;52.218;9.884;2023-02-24T10:01:43;4.00;99.90
16879;DHT22;8556;52.218;9.884;2023-02-24T10:04:39;3.90;99.90
16879;DHT22;8556;52.218;9.884;2023-02-24T10:07:16;4.00;99.90
16879;DHT22;8556;52.218;9.884;2023-02-24T10:09:48;4.00;99.90
16879;DHT22;8556;52.218;9.884;2023-02-24T10:12:20;4.00;99.90
16879;DHT22;8556;52.218;9.884;2023-02-24T10:14:51;4.00;99.90
16879;DHT22;8556;52.218;9.884;2023-02-24T10:17:39;4.00;99.90
16879;DHT22;8556;52.218;9.884;2023-02-24T10:20:15;3.90;99.90
16879;DHT22;8556;52.218;9.884;2023-02-24T10:22:59;3.90;99.90
16879;DHT22;8556;52.218;9.884;2023-02-24T10:25:39;4.00;99.90
16879;DHT22;8556;52.218;9.884;2023-02-24T10:28:17;3.90;99.90
16879;DHT22;8556;52.218;9.884;2023-02-24T10:30:53;3.90;99.90
16879;DHT22;8556;52.218;9.884;2023-02-24T10:33:33;3.80;99.90
16879;DHT22;8556;52.218;9.884;2023-02-24T10:36:09;3.80;99.90
16879;DHT22;8556;52.218;9.884;2023-02-24T10:38:39;3.80;99.90
16879;DHT22;8556;52.218;9.884;2023-02-24T10:41:10;3.70;99.90
16879;DHT22;8556;52.218;9.884;2023-02-24T10:43:38;3.70;99.90
16879;DHT22;8556;52.218;9.884;2023-02-24T10:46:25;3.70;99.90
16879;DHT22;8556;52.218;9.884;2023-02-24T10:48:58;3.70;99.90
16879;DHT22;8556;52.218;9.884;2023-02-24T10:51:30;3.70;99.90
16879;DHT22;8556;52.218;9.884;2023-02-24T10:54:11;3.70;99.90
16879;DHT22;8556;52.218;9.884;2023-02-24T10:57:02;3.70;99.90
16879;DHT22;8556;52.218;9.884;2023-02-24T10:59:51;3.70;99.90
16879;DHT22;8556;52.218;9.884;2023-02-24T11:02:47;3.70;99.90
16879;DHT22;8556;52.218;9.884;2023-02-24T11:05:37;3.70;99.90
16879;DHT22;8556;52.218;9.884;2023-02-24T11:08:13;3.60;99.90
16879;DHT22;8556;52.218;9.884;2023-02-24T11:11:07;3.70;99.90
16879;DHT22;8556;52.218;9.884;2023-02-24T11:13:47;3.80;99.90
16879;DHT22;8556;52.218;9.884;2023-02-24T11:16:43;3.80;99.90
16879;DHT22;8556;52.218;9.884;2023-02-24T11:19:28;4.00;99.90
16879;DHT22;8556;52.218;9.884;2023-02-24T11:21:57;4.00;99.90
16879;DHT22;8556;52.218;9.884;2023-02-24T11:24:27;4.00;99.90
16879;DHT22;8556;52.218;9.884;2023-02-24T11:26:56;3.90;99.90
16879;DHT22;8556;52.218;9.884;2023-02-24T11:29:37;3.80;99.90
16879;DHT22;8556;52.218;9.884;2023-02-24T11:32:37;3.90;99.90
16879;DHT22;8556;52.218;9.884;2023-02-24T11:35:11;3.90;99.90
16879;DHT22;8556;52.218;9.884;2023-02-24T11:37:44;3.80;99.90
16879;DHT22;8556;52.218;9.884;2023-02-24T11:40:16;3.80;99.90
16879;DHT22;8556;52.218;9.884;2023-02-24T11:42:50;3.70;99.90
16879;DHT22;8556;52.218;9.884;2023-02-24T11:45:27;3.70;99.90
16879;DHT22;8556;52.218;9.884;2023-02-24T11:47:58;3.70;99.90
16879;DHT22;8556;52.218;9.884;2023-02-24T11:50:37;3.70;99.90
16879;DHT22;8556;52.218;9.884;2023-02-24T11:53:24;3.70;99.90
16879;DHT22;8556;52.218;9.884;2023-02-24T11:55:56;3.70;99.90
16879;DHT22;8556;52.218;9.884;2023-02-24T11:58:31;3.70;99.90
16879;DHT22;8556;52.218;9.884;2023-02-24T12:01:03;3.70;99.90
16879;DHT22;8556;52.218;9.884;2023-02-24T12:03:36;3.70;99.90
16879;DHT22;8556;52.218;9.884;2023-02-24T12:06:14;3.70;99.90
16879;DHT22;8556;52.218;9.884;2023-02-24T12:08:44;3.70;99.90
16879;DHT22;8556;52.218;9.884;2023-02-24T12:11:16;3.70;99.90
16879;DHT22;8556;52.218;9.884;2023-02-24T12:13:51;3.60;99.90
16879;DHT22;8556;52.218;9.884;2023-02-24T12:16:23;3.60;99.90
16879;DHT22;8556;52.218;9.884;2023-02-24T12:18:58;3.70;99.90
16879;DHT22;8556;52.218;9.884;2023-02-24T12:21:30;3.50;99.90
16879;DHT22;8556;52.218;9.884;2023-02-24T12:23:59;3.50;99.90
16879;DHT22;8556;52.218;9.884;2023-02-24T12:26:34;3.40;99.90
16879;DHT22;8556;52.218;9.884;2023-02-24T12:32:25;3.50;99.90
16879;DHT22;8556;52.218;9.884;2023-02-24T12:35:02;3.40;99.90
16879;DHT22;8556;52.218;9.884;2023-02-24T12:37:41;3.50;99.90
16879;DHT22;8556;52.218;9.884;2023-02-24T12:40:18;3.50;99.90
16879;DHT22;8556;52.218;9.884;2023-02-24T12:42:56;3.60;99.90
16879;DHT22;8556;52.218;9.884;2023-02-24T12:45:36;3.40;99.90
16879;DHT22;8556;52.218;9.884;2023-02-24T12:48:13;3.40;99.90
16879;DHT22;8556;52.218;9.884;2023-02-24T12:50:52;3.40;99.90
16879;DHT22;8556;52.218;9.884;2023-02-24T12:53:22;3.40;99.90
16879;DHT22;8556;52.218;9.884;2023-02-24T12:55:56;3.50;99.90
16879;DHT22;8556;52.218;9.884;2023-02-24T12:58:31;3.40;99.90
16879;DHT22;8556;52.218;9.884;2023-02-24T13:01:06;3.30;99.90
16879;DHT22;8556;52.218;9.884;2023-02-24T13:03:58;3.30;99.90
16879;DHT22;8556;52.218;9.884;2023-02-24T13:06:36;3.20;99.90
16879;DHT22;8556;52.218;9.884;2023-02-24T13:09:12;3.20;99.90
16879;DHT22;8556;52.218;9.884;2023-02-24T13:11:43;3.20;99.90
16879;DHT22;8556;52.218;9.884;2023-02-24T13:14:19;3.20;99.90
16879;DHT22;8556;52.218;9.884;2023-02-24T13:16:47;3.20;99.90
16879;DHT22;8556;52.218;9.884;2023-02-24T13:19:26;3.20;99.90
16879;DHT22;8556;52.218;9.884;2023-02-24T13:21:55;3.20;99.90
16879;DHT22;8556;52.218;9.884;2023-02-24T13:24:23;3.20;99.90
16879;DHT22;8556;52.218;9.884;2023-02-24T13:27:03;3.20;99.90
16879;DHT22;8556;52.218;9.884;2023-02-24T13:29:30;3.30;99.90
16879;DHT22;8556;52.218;9.884;2023-02-24T13:32:24;3.30;99.90
16879;DHT22;8556;52.218;9.884;2023-02-24T13:34:55;3.30;99.90
16879;DHT22;8556;52.218;9.884;2023-02-24T13:37:28;3.40;99.90
16879;DHT22;8556;52.218;9.884;2023-02-24T13:39:55;3.30;99.90
16879;DHT22;8556;52.218;9.884;2023-02-24T13:42:23;3.30;99.90
16879;DHT22;8556;52.218;9.884;2023-02-24T13:44:52;3.30;99.90
16879;DHT22;8556;52.218;9.884;2023-02-24T13:47:46;3.30;99.90
16879;DHT22;8556;52.218;9.884;2023-02-24T13:50:21;3.20;99.90
16879;DHT22;8556;52.218;9.884;2023-02-24T13:53:02;3.30;99.90
16879;DHT22;8556;52.218;9.884;2023-02-24T13:55:43;3.30;99.90
16879;DHT22;8556;52.218;9.884;2023-02-24T14:01:19;3.30;99.90
16879;DHT22;8556;52.218;9.884;2023-02-24T14:04:02;3.40;99.90
16879;DHT22;8556;52.218;9.884;2023-02-24T14:06:31;3.40;99.90
16879;DHT22;8556;52.218;9.884;2023-02-24T14:09:00;3.40;99.90
16879;DHT22;8556;52.218;9.884;2023-02-24T14:11:29;3.40;99.90
16879;DHT22;8556;52.218;9.884;2023-02-24T14:13:58;3.40;99.90
16879;DHT22;8556;52.218;9.884;2023-02-24T14:16:28;3.50;99.90
16879;DHT22;8556;52.218;9.884;2023-02-24T14:18:56;3.60;99.90
16879;DHT22;8556;52.218;9.884;2023-02-24T14:21:25;3.50;99.90
16879;DHT22;8556;52.218;9.884;2023-02-24T14:23:58;3.70;99.90
16879;DHT22;8556;52.218;9.884;2023-02-24T14:26:27;3.70;99.90
16879;DHT22;8556;52.218;9.884;2023-02-24T14:28:57;3.80;99.90
16879;DHT22;8556;52.218;9.884;2023-02-24T14:31:25;3.80;99.90
16879;DHT22;8556;52.218;9.884;2023-02-24T14:33:56;3.80;99.90
16879;DHT22;8556;52.218;9.884;2023-02-24T14:36:26;3.80;99.90
16879;DHT22;8556;52.218;9.884;2023-02-24T14:39:07;3.80;99.90
16879;DHT22;8556;52.218;9.884;2023-02-24T14:41:35;3.80;99.90
16879;DHT22;8556;52.218;9.884;2023-02-24T14:44:14;3.90;99.90
16879;DHT22;8556;52.218;9.884;2023-02-24T14:46:47;3.90;99.90
16879;DHT22;8556;52.218;9.884;2023-02-24T14:49:18;3.90;99.90
16879;DHT22;8556;52.218;9.884;2023-02-24T14:51:46;3.90;99.90
16879;DHT22;8556;52.218;9.884;2023-02-24T14:54:22;3.90;99.90
16879;DHT22;8556;52.218;9.884;2023-02-24T14:56:51;4.00;99.90
16879;DHT22;8556;52.218;9.884;2023-02-24T14:59:23;4.00;99.90
16879;DHT22;8556;52.218;9.884;2023-02-24T15:01:55;4.00;99.90
16879;DHT22;8556;52.218;9.884;2023-02-24T15:04:30;4.00;99.90
16879;DHT22;8556;52.218;9.884;2023-02-24T15:06:59;4.00;99.90
16879;DHT22;8556;52.218;9.884;2023-02-24T15:09:33;4.00;99.90
16879;DHT22;8556;52.218;9.884;2023-02-24T15:12:08;3.90;99.90
16879;DHT22;8556;52.218;9.884;2023-02-24T15:14:36;4.00;99.90
16879;DHT22;8556;52.218;9.884;2023-02-24T15:17:10;4.00;99.90
16879;DHT22;8556;52.218;9.884;2023-02-24T15:19:39;4.00;99.90
16879;DHT22;8556;52.218;9.884;2023-02-24T15:22:31;4.00;99.90
16879;DHT22;8556;52.218;9.884;2023-02-24T15:25:16;4.00;99.90
16879;DHT22;8556;52.218;9.884;2023-02-24T15:27:50;4.10;99.90
16879;DHT22;8556;52.218;9.884;2023-02-24T15:30:27;4.00;99.90
16879;DHT22;8556;52.218;9.884;2023-02-24T15:32:59;4.30;99.90
16879;DHT22;8556;52.218;9.884;2023-02-24T15:35:27;4.10;99.90
16879;DHT22;8556;52.218;9.884;2023-02-24T15:38:12;4.10;99.90
16879;DHT22;8556;52.218;9.884;2023-02-24T15:40:51;4.10;99.90
16879;DHT22;8556;52.218;9.884;2023-02-24T15:43:31;4.00;99.90
16879;DHT22;8556;52.218;9.884;2023-02-24T15:45:58;4.00;99.90
16879;DHT22;8556;52.218;9.884;2023-02-24T15:48:25;4.00;99.90
16879;DHT22;8556;52.218;9.884;2023-02-24T15:50:54;3.90;99.90
16879;DHT22;8556;52.218;9.884;2023-02-24T15:53:25;4.00;99.90
16879;DHT22;8556;52.218;9.884;2023-02-24T15:55:53;4.00;99.90
16879;DHT22;8556;52.218;9.884;2023-02-24T15:58:21;4.00;99.90
16879;DHT22;8556;52.218;9.884;2023-02-24T16:00:49;4.10;99.90
16879;DHT22;8556;52.218;9.884;2023-02-24T16:03:17;4.10;99.90
16879;DHT22;8556;52.218;9.884;2023-02-24T16:05:44;4.10;99.90
16879;DHT22;8556;52.218;9.884;2023-02-24T16:08:13;4.10;99.90
16879;DHT22;8556;52.218;9.884;2023-02-24T16:10:42;4.10;99.90
16879;DHT22;8556;52.218;9.884;2023-02-24T16:13:15;4.00;99.90
16879;DHT22;8556;52.218;9.884;2023-02-24T16:15:43;4.00;99.90
16879;DHT22;8556;52.218;9.884;2023-02-24T16:18:13;4.00;99.90
16879;DHT22;8556;52.218;9.884;2023-02-24T16:20:43;4.00;99.90
16879;DHT22;8556;52.218;9.884;2023-02-24T16:23:13;4.00;99.90
16879;DHT22;8556;52.218;9.884;2023-02-24T16:25:41;4.00;99.90
16879;DHT22;8556;52.218;9.884;2023-02-24T16:28:12;4.00;99.90
16879;DHT22;8556;52.218;9.884;2023-02-24T16:30:40;4.00;99.90
16879;DHT22;8556;52.218;9.884;2023-02-24T16:33:09;3.90;99.90
16879;DHT22;8556;52.218;9.884;2023-02-24T16:35:37;3.90;99.90
16879;DHT22;8556;52.218;9.884;2023-02-24T16:38:06;3.90;99.90
16879;DHT22;8556;52.218;9.884;2023-02-24T16:40:34;3.90;99.90
16879;DHT22;8556;52.218;9.884;2023-02-24T16:43:03;3.90;99.90
16879;DHT22;8556;52.218;9.884;2023-02-24T16:45:32;4.00;99.90
16879;DHT22;8556;52.218;9.884;2023-02-24T16:48:01;4.00;99.90
16879;DHT22;8556;52.218;9.884;2023-02-24T16:50:32;4.00;99.90
16879;DHT22;8556;52.218;9.884;2023-02-24T16:52:59;4.00;99.90
16879;DHT22;8556;52.218;9.884;2023-02-24T16:55:26;3.90;99.90